sensor_id;sensor_type;location;lat;lon;timestamp;temperature;humidity
14604;DHT22;7388;51.078;13.740;2023-07-31T00:00:14;20.90;48.40
14604;DHT22;7388;51.078;13.740;2023-07-31T00:02:41;20.90;48.40
14604;DHT22;7388;51.078;13.740;2023-07-31T00:05:08;20.90;48.00
14604;DHT22;7388;51.078;13.740;2023-07-31T00:07:35;20.90;48.20
14604;DHT22;7388;51.078;13.740;2023-07-31T00:10:01;20.90;48.30
14604;DHT22;7388;51.078;13.740;2023-07-31T00:12:26;20.90;48.00
14604;DHT22;7388;51.078;13.740;2023-07-31T00:14:52;20.90;48.00
14604;DHT22;7388;51.078;13.740;2023-07-31T00:17:18;20.90;47.80
14604;DHT22;7388;51.078;13.740;2023-07-31T00:19:44;20.90;47.60
14604;DHT22;7388;51.078;13.740;2023-07-31T00:22:12;20.80;47.60
14604;DHT22;7388;51.078;13.740;2023-07-31T00:24:37;20.80;47.80
14604;DHT22;7388;51.078;13.740;2023-07-31T00:27:04;20.80;47.90
14604;DHT22;7388;51.078;13.740;2023-07-31T00:29:30;20.80;47.90
14604;DHT22;7388;51.078;13.740;2023-07-31T00:31:56;20.80;47.60
14604;DHT22;7388;51.078;13.740;2023-07-31T00:34:22;20.80;47.90
14604;DHT22;7388;51.078;13.740;2023-07-31T00:36:47;20.80;48.00
14604;DHT22;7388;51.078;13.740;2023-07-31T00:39:13;20.70;47.70
14604;DHT22;7388;51.078;13.740;2023-07-31T00:41:39;20.70;47.60
14604;DHT22;7388;51.078;13.740;2023-07-31T00:44:05;20.70;47.80
14604;DHT22;7388;51.078;13.740;2023-07-31T00:46:31;20.70;47.80
14604;DHT22;7388;51.078;13.740;2023-07-31T00:48:57;20.70;48.10
14604;DHT22;7388;51.078;13.740;2023-07-31T00:51:23;20.60;47.80
14604;DHT22;7388;51.078;13.740;2023-07-31T00:53:49;20.60;48.00
14604;DHT22;7388;51.078;13.740;2023-07-31T00:56:15;20.60;48.00
14604;DHT22;7388;51.078;13.740;2023-07-31T00:58:41;20.70;48.20
14604;DHT22;7388;51.078;13.740;2023-07-31T01:01:07;20.70;48.40
14604;DHT22;7388;51.078;13.740;2023-07-31T01:03:33;20.70;49.00
14604;DHT22;7388;51.078;13.740;2023-07-31T01:06:34;20.70;48.20
14604;DHT22;7388;51.078;13.740;2023-07-31T01:09:04;20.80;48.00
14604;DHT22;7388;51.078;13.740;2023-07-31T01:11:35;20.70;48.20
14604;DHT22;7388;51.078;13.740;2023-07-31T01:14:04;20.70;48.00
14604;DHT22;7388;51.078;13.740;2023-07-31T01:16:30;20.80;48.10
14604;DHT22;7388;51.078;13.740;2023-07-31T01:18:56;20.80;48.10
14604;DHT22;7388;51.078;13.740;2023-07-31T01:26:58;20.80;48.00
14604;DHT22;7388;51.078;13.740;2023-07-31T01:30:03;20.70;48.30
14604;DHT22;7388;51.078;13.740;2023-07-31T01:32:38;20.70;46.80
14604;DHT22;7388;51.078;13.740;2023-07-31T01:35:06;20.60;47.70
14604;DHT22;7388;51.078;13.740;2023-07-31T01:37:32;20.60;48.10
14604;DHT22;7388;51.078;13.740;2023-07-31T01:39:58;20.60;48.30
14604;DHT22;7388;51.078;13.740;2023-07-31T01:42:23;20.60;48.10
14604;DHT22;7388;51.078;13.740;2023-07-31T01:44:49;20.60;48.20
14604;DHT22;7388;51.078;13.740;2023-07-31T01:47:15;20.60;48.20
14604;DHT22;7388;51.078;13.740;2023-07-31T01:49:41;20.70;47.70
14604;DHT22;7388;51.078;13.740;2023-07-31T01:52:07;20.70;47.90
14604;DHT22;7388;51.078;13.740;2023-07-31T01:54:32;20.70;47.90
14604;DHT22;7388;51.078;13.740;2023-07-31T01:56:59;20.70;47.80
14604;DHT22;7388;51.078;13.740;2023-07-31T01:59:24;20.70;48.00
14604;DHT22;7388;51.078;13.740;2023-07-31T02:01:50;20.80;47.60
14604;DHT22;7388;51.078;13.740;2023-07-31T02:04:16;20.80;47.50
14604;DHT22;7388;51.078;13.740;2023-07-31T02:06:43;20.90;47.60
14604;DHT22;7388;51.078;13.740;2023-07-31T02:09:09;20.90;47.70
14604;DHT22;7388;51.078;13.740;2023-07-31T02:11:35;20.90;47.20
14604;DHT22;7388;51.078;13.740;2023-07-31T02:14:01;20.90;46.70
14604;DHT22;7388;51.078;13.740;2023-07-31T02:16:26;21.00;46.60
14604;DHT22;7388;51.078;13.740;2023-07-31T02:18:52;21.00;46.80
14604;DHT22;7388;51.078;13.740;2023-07-31T02:21:18;21.10;46.70
14604;DHT22;7388;51.078;13.740;2023-07-31T02:23:44;21.10;46.60
14604;DHT22;7388;51.078;13.740;2023-07-31T02:26:10;21.20;46.70
14604;DHT22;7388;51.078;13.740;2023-07-31T02:28:35;21.20;46.60
14604;DHT22;7388;51.078;13.740;2023-07-31T02:31:01;21.20;46.70
14604;DHT22;7388;51.078;13.740;2023-07-31T02:33:27;21.30;46.70
14604;DHT22;7388;51.078;13.740;2023-07-31T02:35:53;21.30;46.20
14604;DHT22;7388;51.078;13.740;2023-07-31T02:38:19;21.30;45.60
14604;DHT22;7388;51.078;13.740;2023-07-31T02:40:45;21.40;46.00
14604;DHT22;7388;51.078;13.740;2023-07-31T02:43:10;21.40;46.10
14604;DHT22;7388;51.078;13.740;2023-07-31T02:45:36;21.40;45.90
14604;DHT22;7388;51.078;13.740;2023-07-31T02:48:02;21.40;45.60
14604;DHT22;7388;51.078;13.740;2023-07-31T02:50:28;21.40;46.20
14604;DHT22;7388;51.078;13.740;2023-07-31T02:52:54;21.40;46.50
14604;DHT22;7388;51.078;13.740;2023-07-31T02:55:20;21.40;46.20
14604;DHT22;7388;51.078;13.740;2023-07-31T02:57:45;21.50;46.50
14604;DHT22;7388;51.078;13.740;2023-07-31T03:00:12;21.50;46.40
14604;DHT22;7388;51.078;13.740;2023-07-31T03:02:38;21.50;46.20
14604;DHT22;7388;51.078;13.740;2023-07-31T03:05:04;21.50;45.90
14604;DHT22;7388;51.078;13.740;2023-07-31T03:07:30;21.40;45.80
14604;DHT22;7388;51.078;13.740;2023-07-31T03:09:56;21.50;46.00
14604;DHT22;7388;51.078;13.740;2023-07-31T03:12:22;21.40;46.30
14604;DHT22;7388;51.078;13.740;2023-07-31T03:14:48;21.40;46.60
14604;DHT22;7388;51.078;13.740;2023-07-31T03:17:15;21.40;46.70
14604;DHT22;7388;51.078;13.740;2023-07-31T03:19:41;21.40;47.10
14604;DHT22;7388;51.078;13.740;2023-07-31T03:22:06;21.40;47.00
14604;DHT22;7388;51.078;13.740;2023-07-31T03:24:32;21.40;46.10
14604;DHT22;7388;51.078;13.740;2023-07-31T03:26:58;21.30;46.50
14604;DHT22;7388;51.078;13.740;2023-07-31T03:29:24;21.30;46.00
14604;DHT22;7388;51.078;13.740;2023-07-31T03:31:50;21.30;45.30
14604;DHT22;7388;51.078;13.740;2023-07-31T03:34:15;21.30;45.40
14604;DHT22;7388;51.078;13.740;2023-07-31T03:36:41;21.30;44.90
14604;DHT22;7388;51.078;13.740;2023-07-31T03:39:07;21.30;44.30
14604;DHT22;7388;51.078;13.740;2023-07-31T03:41:33;21.20;44.30
14604;DHT22;7388;51.078;13.740;2023-07-31T03:43:59;21.20;44.50
14604;DHT22;7388;51.078;13.740;2023-07-31T03:46:25;21.20;44.70
14604;DHT22;7388;51.078;13.740;2023-07-31T03:48:51;21.20;45.20
14604;DHT22;7388;51.078;13.740;2023-07-31T03:51:17;21.20;45.60
14604;DHT22;7388;51.078;13.740;2023-07-31T03:53:44;21.10;46.00
14604;DHT22;7388;51.078;13.740;2023-07-31T03:56:10;21.10;46.30
14604;DHT22;7388;51.078;13.740;2023-07-31T03:58:36;21.10;46.50
14604;DHT22;7388;51.078;13.740;2023-07-31T04:01:03;21.10;46.60
14604;DHT22;7388;51.078;13.740;2023-07-31T04:03:29;21.10;46.90
14604;DHT22;7388;51.078;13.740;2023-07-31T04:05:55;21.10;46.70
14604;DHT22;7388;51.078;13.740;2023-07-31T04:08:22;21.10;46.90
14604;DHT22;7388;51.078;13.740;2023-07-31T04:10:48;21.10;47.00
14604;DHT22;7388;51.078;13.740;2023-07-31T04:13:14;21.00;47.10
14604;DHT22;7388;51.078;13.740;2023-07-31T04:15:40;21.10;47.50
14604;DHT22;7388;51.078;13.740;2023-07-31T04:18:06;21.10;47.70
14604;DHT22;7388;51.078;13.740;2023-07-31T04:20:32;21.10;47.10
14604;DHT22;7388;51.078;13.740;2023-07-31T04:22:58;21.10;47.50
14604;DHT22;7388;51.078;13.740;2023-07-31T04:25:24;21.10;48.00
14604;DHT22;7388;51.078;13.740;2023-07-31T04:27:50;21.20;48.50
14604;DHT22;7388;51.078;13.740;2023-07-31T04:30:15;21.20;48.60
14604;DHT22;7388;51.078;13.740;2023-07-31T04:32:41;21.20;48.60
14604;DHT22;7388;51.078;13.740;2023-07-31T04:35:07;21.20;48.60
14604;DHT22;7388;51.078;13.740;2023-07-31T04:37:33;21.20;48.60
14604;DHT22;7388;51.078;13.740;2023-07-31T04:39:59;21.20;49.00
14604;DHT22;7388;51.078;13.740;2023-07-31T04:42:25;21.20;49.00
14604;DHT22;7388;51.078;13.740;2023-07-31T04:44:51;21.20;48.80
14604;DHT22;7388;51.078;13.740;2023-07-31T04:47:18;21.20;49.60
14604;DHT22;7388;51.078;13.740;2023-07-31T04:49:44;21.30;48.80
14604;DHT22;7388;51.078;13.740;2023-07-31T04:52:10;21.20;49.00
14604;DHT22;7388;51.078;13.740;2023-07-31T04:54:36;21.30;49.00
14604;DHT22;7388;51.078;13.740;2023-07-31T04:57:02;21.30;49.10
14604;DHT22;7388;51.078;13.740;2023-07-31T04:59:28;21.30;49.10
14604;DHT22;7388;51.078;13.740;2023-07-31T05:01:54;21.30;49.30
14604;DHT22;7388;51.078;13.740;2023-07-31T05:04:20;21.30;49.80
14604;DHT22;7388;51.078;13.740;2023-07-31T05:06:45;21.30;49.30
14604;DHT22;7388;51.078;13.740;2023-07-31T05:09:11;21.30;49.10
14604;DHT22;7388;51.078;13.740;2023-07-31T05:11:37;21.30;49.20
14604;DHT22;7388;51.078;13.740;2023-07-31T05:14:03;21.20;49.40
14604;DHT22;7388;51.078;13.740;2023-07-31T05:16:29;21.20;49.60
14604;DHT22;7388;51.078;13.740;2023-07-31T05:18:55;21.20;49.50
14604;DHT22;7388;51.078;13.740;2023-07-31T05:21:21;21.20;49.80
14604;DHT22;7388;51.078;13.740;2023-07-31T05:23:46;21.20;49.30
14604;DHT22;7388;51.078;13.740;2023-07-31T05:26:13;21.20;49.60
14604;DHT22;7388;51.078;13.740;2023-07-31T05:28:39;21.20;49.20
14604;DHT22;7388;51.078;13.740;2023-07-31T05:31:05;21.20;49.30
14604;DHT22;7388;51.078;13.740;2023-07-31T05:33:32;21.20;49.10
14604;DHT22;7388;51.078;13.740;2023-07-31T05:35:58;21.20;49.10
14604;DHT22;7388;51.078;13.740;2023-07-31T05:38:24;21.30;49.20
14604;DHT22;7388;51.078;13.740;2023-07-31T05:40:50;21.20;48.80
14604;DHT22;7388;51.078;13.740;2023-07-31T05:43:16;21.30;48.90
14604;DHT22;7388;51.078;13.740;2023-07-31T05:45:44;21.20;49.10
14604;DHT22;7388;51.078;13.740;2023-07-31T05:48:10;21.30;49.20
14604;DHT22;7388;51.078;13.740;2023-07-31T05:50:36;21.30;49.30
14604;DHT22;7388;51.078;13.740;2023-07-31T05:53:04;21.10;49.00
14604;DHT22;7388;51.078;13.740;2023-07-31T05:55:30;21.30;49.10
14604;DHT22;7388;51.078;13.740;2023-07-31T05:57:56;21.30;49.50
14604;DHT22;7388;51.078;13.740;2023-07-31T06:00:22;21.40;49.20
14604;DHT22;7388;51.078;13.740;2023-07-31T06:02:48;21.40;49.20
14604;DHT22;7388;51.078;13.740;2023-07-31T06:05:14;21.40;49.00
14604;DHT22;7388;51.078;13.740;2023-07-31T06:07:40;21.50;49.20
14604;DHT22;7388;51.078;13.740;2023-07-31T06:10:06;21.50;49.70
14604;DHT22;7388;51.078;13.740;2023-07-31T06:12:33;21.50;50.10
14604;DHT22;7388;51.078;13.740;2023-07-31T06:14:58;21.40;49.60
14604;DHT22;7388;51.078;13.740;2023-07-31T06:17:24;21.50;49.20
14604;DHT22;7388;51.078;13.740;2023-07-31T06:19:51;21.50;49.50
14604;DHT22;7388;51.078;13.740;2023-07-31T06:22:17;21.50;49.50
14604;DHT22;7388;51.078;13.740;2023-07-31T06:24:43;21.50;49.80
14604;DHT22;7388;51.078;13.740;2023-07-31T06:27:10;21.50;49.80
14604;DHT22;7388;51.078;13.740;2023-07-31T06:29:36;21.60;49.40
14604;DHT22;7388;51.078;13.740;2023-07-31T06:32:02;21.60;49.30
14604;DHT22;7388;51.078;13.740;2023-07-31T06:34:28;21.60;49.60
14604;DHT22;7388;51.078;13.740;2023-07-31T06:36:55;21.60;49.30
14604;DHT22;7388;51.078;13.740;2023-07-31T06:39:21;21.60;49.00
14604;DHT22;7388;51.078;13.740;2023-07-31T06:41:47;21.60;49.10
14604;DHT22;7388;51.078;13.740;2023-07-31T06:44:13;21.60;49.10
14604;DHT22;7388;51.078;13.740;2023-07-31T06:46:39;21.60;49.50
14604;DHT22;7388;51.078;13.740;2023-07-31T06:49:05;21.60;49.50
14604;DHT22;7388;51.078;13.740;2023-07-31T06:51:31;21.70;49.80
14604;DHT22;7388;51.078;13.740;2023-07-31T06:53:59;21.70;50.20
14604;DHT22;7388;51.078;13.740;2023-07-31T06:56:25;21.70;50.40
14604;DHT22;7388;51.078;13.740;2023-07-31T06:58:51;21.80;50.60
14604;DHT22;7388;51.078;13.740;2023-07-31T07:01:17;21.80;51.00
14604;DHT22;7388;51.078;13.740;2023-07-31T07:03:43;21.90;50.50
14604;DHT22;7388;51.078;13.740;2023-07-31T07:06:09;21.90;50.50
14604;DHT22;7388;51.078;13.740;2023-07-31T07:08:34;22.00;50.50
14604;DHT22;7388;51.078;13.740;2023-07-31T07:11:00;22.00;50.60
14604;DHT22;7388;51.078;13.740;2023-07-31T07:13:26;22.10;51.10
14604;DHT22;7388;51.078;13.740;2023-07-31T07:15:52;22.10;50.50
14604;DHT22;7388;51.078;13.740;2023-07-31T07:18:18;22.20;50.60
14604;DHT22;7388;51.078;13.740;2023-07-31T07:20:50;22.20;50.30
14604;DHT22;7388;51.078;13.740;2023-07-31T07:23:16;22.20;50.20
14604;DHT22;7388;51.078;13.740;2023-07-31T07:25:43;22.20;50.10
14604;DHT22;7388;51.078;13.740;2023-07-31T07:28:09;22.20;49.30
14604;DHT22;7388;51.078;13.740;2023-07-31T07:30:35;22.30;49.30
14604;DHT22;7388;51.078;13.740;2023-07-31T07:33:01;22.40;49.70
14604;DHT22;7388;51.078;13.740;2023-07-31T07:35:27;22.40;49.80
14604;DHT22;7388;51.078;13.740;2023-07-31T07:37:53;22.50;49.40
14604;DHT22;7388;51.078;13.740;2023-07-31T07:40:20;22.50;48.60
14604;DHT22;7388;51.078;13.740;2023-07-31T07:42:46;22.60;48.50
14604;DHT22;7388;51.078;13.740;2023-07-31T07:45:13;22.70;47.80
14604;DHT22;7388;51.078;13.740;2023-07-31T07:47:40;22.70;48.70
14604;DHT22;7388;51.078;13.740;2023-07-31T07:50:07;22.70;48.70
14604;DHT22;7388;51.078;13.740;2023-07-31T07:52:33;22.80;48.60
14604;DHT22;7388;51.078;13.740;2023-07-31T07:54:59;22.80;48.00
14604;DHT22;7388;51.078;13.740;2023-07-31T07:57:26;22.80;48.00
14604;DHT22;7388;51.078;13.740;2023-07-31T07:59:52;22.90;48.60
14604;DHT22;7388;51.078;13.740;2023-07-31T08:02:18;22.90;48.40
14604;DHT22;7388;51.078;13.740;2023-07-31T08:04:44;22.90;48.00
14604;DHT22;7388;51.078;13.740;2023-07-31T08:07:12;23.00;48.20
14604;DHT22;7388;51.078;13.740;2023-07-31T08:09:38;23.00;47.80
14604;DHT22;7388;51.078;13.740;2023-07-31T08:12:05;23.10;46.90
14604;DHT22;7388;51.078;13.740;2023-07-31T08:14:32;23.10;46.50
14604;DHT22;7388;51.078;13.740;2023-07-31T08:16:57;23.10;47.20
14604;DHT22;7388;51.078;13.740;2023-07-31T08:19:23;23.10;47.50
14604;DHT22;7388;51.078;13.740;2023-07-31T08:21:49;23.30;47.30
14604;DHT22;7388;51.078;13.740;2023-07-31T08:24:15;23.30;47.00
14604;DHT22;7388;51.078;13.740;2023-07-31T08:26:42;23.40;46.90
14604;DHT22;7388;51.078;13.740;2023-07-31T08:29:08;23.40;47.60
14604;DHT22;7388;51.078;13.740;2023-07-31T08:31:33;23.40;46.10
14604;DHT22;7388;51.078;13.740;2023-07-31T08:34:00;23.40;45.90
14604;DHT22;7388;51.078;13.740;2023-07-31T08:36:26;23.40;45.30
14604;DHT22;7388;51.078;13.740;2023-07-31T08:38:52;23.50;44.60
14604;DHT22;7388;51.078;13.740;2023-07-31T08:41:18;23.50;44.50
14604;DHT22;7388;51.078;13.740;2023-07-31T08:43:45;23.50;45.20
14604;DHT22;7388;51.078;13.740;2023-07-31T08:46:11;23.40;45.00
14604;DHT22;7388;51.078;13.740;2023-07-31T08:48:41;23.40;45.30
14604;DHT22;7388;51.078;13.740;2023-07-31T08:51:07;23.40;44.60
14604;DHT22;7388;51.078;13.740;2023-07-31T08:53:33;23.40;43.30
14604;DHT22;7388;51.078;13.740;2023-07-31T08:55:59;23.30;44.30
14604;DHT22;7388;51.078;13.740;2023-07-31T08:58:25;23.30;44.60
14604;DHT22;7388;51.078;13.740;2023-07-31T09:00:54;23.30;43.80
14604;DHT22;7388;51.078;13.740;2023-07-31T09:03:23;23.40;43.90
14604;DHT22;7388;51.078;13.740;2023-07-31T09:05:51;23.30;44.30
14604;DHT22;7388;51.078;13.740;2023-07-31T09:08:21;23.30;44.20
14604;DHT22;7388;51.078;13.740;2023-07-31T09:10:47;23.40;44.20
14604;DHT22;7388;51.078;13.740;2023-07-31T09:13:15;23.30;44.30
14604;DHT22;7388;51.078;13.740;2023-07-31T09:15:44;23.30;44.30
14604;DHT22;7388;51.078;13.740;2023-07-31T09:18:10;23.30;43.90
14604;DHT22;7388;51.078;13.740;2023-07-31T09:20:36;23.30;44.70
14604;DHT22;7388;51.078;13.740;2023-07-31T09:23:10;23.30;44.60
14604;DHT22;7388;51.078;13.740;2023-07-31T09:25:38;23.40;44.70
14604;DHT22;7388;51.078;13.740;2023-07-31T09:28:09;23.40;44.70
14604;DHT22;7388;51.078;13.740;2023-07-31T09:30:49;23.40;44.40
14604;DHT22;7388;51.078;13.740;2023-07-31T09:33:16;23.40;44.40
14604;DHT22;7388;51.078;13.740;2023-07-31T09:35:43;23.40;44.70
14604;DHT22;7388;51.078;13.740;2023-07-31T09:38:13;23.40;44.00
14604;DHT22;7388;51.078;13.740;2023-07-31T09:40:45;23.40;43.90
14604;DHT22;7388;51.078;13.740;2023-07-31T09:43:12;23.40;44.10
14604;DHT22;7388;51.078;13.740;2023-07-31T09:45:40;23.50;45.20
14604;DHT22;7388;51.078;13.740;2023-07-31T09:48:10;23.40;44.70
14604;DHT22;7388;51.078;13.740;2023-07-31T09:50:41;23.50;43.20
14604;DHT22;7388;51.078;13.740;2023-07-31T09:53:08;23.50;43.70
14604;DHT22;7388;51.078;13.740;2023-07-31T09:55:36;23.50;44.10
14604;DHT22;7388;51.078;13.740;2023-07-31T09:58:07;23.50;44.10
14604;DHT22;7388;51.078;13.740;2023-07-31T10:00:35;23.60;43.80
14604;DHT22;7388;51.078;13.740;2023-07-31T10:03:10;23.60;43.20
14604;DHT22;7388;51.078;13.740;2023-07-31T10:08:03;23.70;43.30
14604;DHT22;7388;51.078;13.740;2023-07-31T10:10:30;23.80;42.40
14604;DHT22;7388;51.078;13.740;2023-07-31T10:12:56;23.70;43.10
14604;DHT22;7388;51.078;13.740;2023-07-31T10:15:23;23.70;43.30
14604;DHT22;7388;51.078;13.740;2023-07-31T10:17:50;23.80;43.00
14604;DHT22;7388;51.078;13.740;2023-07-31T10:20:17;23.80;43.70
14604;DHT22;7388;51.078;13.740;2023-07-31T10:22:44;23.80;43.30
14604;DHT22;7388;51.078;13.740;2023-07-31T10:25:15;23.80;43.00
14604;DHT22;7388;51.078;13.740;2023-07-31T10:27:42;23.80;42.80
14604;DHT22;7388;51.078;13.740;2023-07-31T10:30:14;23.80;42.80
14604;DHT22;7388;51.078;13.740;2023-07-31T10:32:41;23.90;43.00
14604;DHT22;7388;51.078;13.740;2023-07-31T10:35:09;23.90;42.50
14604;DHT22;7388;51.078;13.740;2023-07-31T10:37:40;23.90;42.30
14604;DHT22;7388;51.078;13.740;2023-07-31T10:40:11;23.90;42.50
14604;DHT22;7388;51.078;13.740;2023-07-31T10:42:48;23.90;42.90
14604;DHT22;7388;51.078;13.740;2023-07-31T10:45:39;24.00;44.00
14604;DHT22;7388;51.078;13.740;2023-07-31T10:48:13;24.10;43.40
14604;DHT22;7388;51.078;13.740;2023-07-31T10:50:51;24.20;42.30
14604;DHT22;7388;51.078;13.740;2023-07-31T10:55:52;24.30;43.00
14604;DHT22;7388;51.078;13.740;2023-07-31T10:58:20;24.30;43.70
14604;DHT22;7388;51.078;13.740;2023-07-31T11:00:46;24.40;43.40
14604;DHT22;7388;51.078;13.740;2023-07-31T11:03:17;24.40;42.10
14604;DHT22;7388;51.078;13.740;2023-07-31T11:08:26;24.40;42.50
14604;DHT22;7388;51.078;13.740;2023-07-31T11:13:28;24.50;41.60
14604;DHT22;7388;51.078;13.740;2023-07-31T11:15:54;24.50;41.40
14604;DHT22;7388;51.078;13.740;2023-07-31T11:18:20;24.50;41.30
14604;DHT22;7388;51.078;13.740;2023-07-31T11:20:46;24.60;41.80
14604;DHT22;7388;51.078;13.740;2023-07-31T11:23:12;24.60;42.60
14604;DHT22;7388;51.078;13.740;2023-07-31T11:25:39;24.60;42.80
14604;DHT22;7388;51.078;13.740;2023-07-31T11:28:09;24.60;43.30
14604;DHT22;7388;51.078;13.740;2023-07-31T11:30:36;24.60;43.90
14604;DHT22;7388;51.078;13.740;2023-07-31T11:33:04;24.60;43.50
14604;DHT22;7388;51.078;13.740;2023-07-31T11:35:31;24.60;42.80
14604;DHT22;7388;51.078;13.740;2023-07-31T11:37:58;24.60;43.40
14604;DHT22;7388;51.078;13.740;2023-07-31T11:40:24;24.60;42.80
14604;DHT22;7388;51.078;13.740;2023-07-31T11:43:04;24.60;43.10
14604;DHT22;7388;51.078;13.740;2023-07-31T11:45:30;24.70;42.50
14604;DHT22;7388;51.078;13.740;2023-07-31T11:47:56;24.70;42.80
14604;DHT22;7388;51.078;13.740;2023-07-31T11:50:23;24.80;43.40
14604;DHT22;7388;51.078;13.740;2023-07-31T11:52:59;24.90;43.20
14604;DHT22;7388;51.078;13.740;2023-07-31T11:55:26;25.00;42.70
14604;DHT22;7388;51.078;13.740;2023-07-31T11:57:53;25.10;42.40
14604;DHT22;7388;51.078;13.740;2023-07-31T12:00:19;25.10;41.60
14604;DHT22;7388;51.078;13.740;2023-07-31T12:02:46;25.30;41.90
14604;DHT22;7388;51.078;13.740;2023-07-31T12:05:13;25.30;40.90
14604;DHT22;7388;51.078;13.740;2023-07-31T12:07:47;25.40;41.30
14604;DHT22;7388;51.078;13.740;2023-07-31T12:10:29;25.40;41.70
14604;DHT22;7388;51.078;13.740;2023-07-31T12:13:25;25.50;41.20
14604;DHT22;7388;51.078;13.740;2023-07-31T12:15:56;25.70;42.40
14604;DHT22;7388;51.078;13.740;2023-07-31T12:18:27;25.90;41.50
14604;DHT22;7388;51.078;13.740;2023-07-31T12:20:57;26.10;41.20
14604;DHT22;7388;51.078;13.740;2023-07-31T12:23:29;26.30;40.40
14604;DHT22;7388;51.078;13.740;2023-07-31T12:28:38;26.60;39.40
14604;DHT22;7388;51.078;13.740;2023-07-31T12:31:04;26.60;39.70
14604;DHT22;7388;51.078;13.740;2023-07-31T12:33:32;26.60;39.20
14604;DHT22;7388;51.078;13.740;2023-07-31T12:36:00;26.70;39.00
14604;DHT22;7388;51.078;13.740;2023-07-31T12:38:26;26.70;38.30
14604;DHT22;7388;51.078;13.740;2023-07-31T12:40:52;26.70;38.70
14604;DHT22;7388;51.078;13.740;2023-07-31T12:43:17;26.70;38.90
14604;DHT22;7388;51.078;13.740;2023-07-31T12:45:43;26.80;39.60
14604;DHT22;7388;51.078;13.740;2023-07-31T12:48:10;26.90;39.50
14604;DHT22;7388;51.078;13.740;2023-07-31T12:50:36;26.90;38.90
14604;DHT22;7388;51.078;13.740;2023-07-31T12:53:02;27.00;38.10
14604;DHT22;7388;51.078;13.740;2023-07-31T12:55:31;26.90;35.70
14604;DHT22;7388;51.078;13.740;2023-07-31T12:58:00;26.90;35.40
14604;DHT22;7388;51.078;13.740;2023-07-31T13:00:26;26.90;35.50
14604;DHT22;7388;51.078;13.740;2023-07-31T13:02:52;26.90;36.70
14604;DHT22;7388;51.078;13.740;2023-07-31T13:05:18;26.90;36.00
14604;DHT22;7388;51.078;13.740;2023-07-31T13:07:45;27.00;36.40
14604;DHT22;7388;51.078;13.740;2023-07-31T13:10:11;27.00;35.40
14604;DHT22;7388;51.078;13.740;2023-07-31T13:12:37;27.00;35.20
14604;DHT22;7388;51.078;13.740;2023-07-31T13:15:04;27.00;34.50
14604;DHT22;7388;51.078;13.740;2023-07-31T13:17:30;26.90;35.10
14604;DHT22;7388;51.078;13.740;2023-07-31T13:19:56;26.90;34.60
14604;DHT22;7388;51.078;13.740;2023-07-31T13:22:22;26.90;34.80
14604;DHT22;7388;51.078;13.740;2023-07-31T13:24:48;26.90;34.60
14604;DHT22;7388;51.078;13.740;2023-07-31T13:27:14;26.90;34.80
14604;DHT22;7388;51.078;13.740;2023-07-31T13:29:51;26.80;35.80
14604;DHT22;7388;51.078;13.740;2023-07-31T13:32:19;26.80;36.60
14604;DHT22;7388;51.078;13.740;2023-07-31T13:34:45;26.80;35.40
14604;DHT22;7388;51.078;13.740;2023-07-31T13:37:12;26.80;36.80
14604;DHT22;7388;51.078;13.740;2023-07-31T13:39:39;26.80;35.50
14604;DHT22;7388;51.078;13.740;2023-07-31T13:42:06;26.80;35.00
14604;DHT22;7388;51.078;13.740;2023-07-31T13:44:34;26.90;34.80
14604;DHT22;7388;51.078;13.740;2023-07-31T13:47:00;26.90;35.60
14604;DHT22;7388;51.078;13.740;2023-07-31T13:49:27;27.00;36.00
14604;DHT22;7388;51.078;13.740;2023-07-31T13:51:52;27.00;35.70
14604;DHT22;7388;51.078;13.740;2023-07-31T13:54:18;27.00;36.00
14604;DHT22;7388;51.078;13.740;2023-07-31T13:56:44;27.10;36.50
14604;DHT22;7388;51.078;13.740;2023-07-31T13:59:10;27.10;35.90
14604;DHT22;7388;51.078;13.740;2023-07-31T14:01:36;27.10;35.40
14604;DHT22;7388;51.078;13.740;2023-07-31T14:04:02;27.10;35.30
14604;DHT22;7388;51.078;13.740;2023-07-31T14:06:28;27.00;34.40
14604;DHT22;7388;51.078;13.740;2023-07-31T14:08:54;27.10;35.90
14604;DHT22;7388;51.078;13.740;2023-07-31T14:11:21;27.10;35.70
14604;DHT22;7388;51.078;13.740;2023-07-31T14:13:47;27.20;36.00
14604;DHT22;7388;51.078;13.740;2023-07-31T14:16:13;27.30;34.40
14604;DHT22;7388;51.078;13.740;2023-07-31T14:18:39;27.40;34.40
14604;DHT22;7388;51.078;13.740;2023-07-31T14:21:05;27.40;34.20
14604;DHT22;7388;51.078;13.740;2023-07-31T14:23:31;27.40;34.40
14604;DHT22;7388;51.078;13.740;2023-07-31T14:25:56;27.30;35.00
14604;DHT22;7388;51.078;13.740;2023-07-31T14:28:22;27.30;35.40
14604;DHT22;7388;51.078;13.740;2023-07-31T14:30:48;27.40;35.10
14604;DHT22;7388;51.078;13.740;2023-07-31T14:33:14;27.40;35.30
14604;DHT22;7388;51.078;13.740;2023-07-31T14:35:40;27.40;34.40
14604;DHT22;7388;51.078;13.740;2023-07-31T14:38:05;27.40;35.20
14604;DHT22;7388;51.078;13.740;2023-07-31T14:40:31;27.50;35.50
14604;DHT22;7388;51.078;13.740;2023-07-31T14:42:57;27.50;35.40
14604;DHT22;7388;51.078;13.740;2023-07-31T14:45:23;27.60;34.70
14604;DHT22;7388;51.078;13.740;2023-07-31T14:47:49;27.70;34.80
14604;DHT22;7388;51.078;13.740;2023-07-31T14:50:15;27.70;34.70
14604;DHT22;7388;51.078;13.740;2023-07-31T14:52:41;27.70;34.60
14604;DHT22;7388;51.078;13.740;2023-07-31T14:55:07;27.70;34.20
14604;DHT22;7388;51.078;13.740;2023-07-31T14:57:34;27.60;34.30
14604;DHT22;7388;51.078;13.740;2023-07-31T15:00:00;27.50;35.40
14604;DHT22;7388;51.078;13.740;2023-07-31T15:02:26;27.50;34.70
14604;DHT22;7388;51.078;13.740;2023-07-31T15:04:53;27.60;35.30
14604;DHT22;7388;51.078;13.740;2023-07-31T15:07:18;27.70;34.10
14604;DHT22;7388;51.078;13.740;2023-07-31T15:09:44;27.80;33.30
14604;DHT22;7388;51.078;13.740;2023-07-31T15:12:10;27.90;34.00
14604;DHT22;7388;51.078;13.740;2023-07-31T15:14:36;27.90;33.60
14604;DHT22;7388;51.078;13.740;2023-07-31T15:17:02;27.90;33.00
14604;DHT22;7388;51.078;13.740;2023-07-31T15:19:27;27.80;34.00
14604;DHT22;7388;51.078;13.740;2023-07-31T15:21:54;27.80;34.00
14604;DHT22;7388;51.078;13.740;2023-07-31T15:24:20;27.70;35.20
14604;DHT22;7388;51.078;13.740;2023-07-31T15:26:46;27.70;34.20
14604;DHT22;7388;51.078;13.740;2023-07-31T15:29:12;27.70;34.30
14604;DHT22;7388;51.078;13.740;2023-07-31T15:31:43;27.60;34.50
14604;DHT22;7388;51.078;13.740;2023-07-31T15:34:09;27.70;34.60
14604;DHT22;7388;51.078;13.740;2023-07-31T15:36:35;27.70;35.00
14604;DHT22;7388;51.078;13.740;2023-07-31T15:39:01;27.70;34.80
14604;DHT22;7388;51.078;13.740;2023-07-31T15:41:26;27.60;33.90
14604;DHT22;7388;51.078;13.740;2023-07-31T15:43:55;27.50;33.90
14604;DHT22;7388;51.078;13.740;2023-07-31T15:46:21;27.50;34.10